Mount Lawley Perth Metro, Australia
Current Conditions -  °F | °C
As of 12:30 PM on Monday 22 Dec 2014 (Local Time) from YPPH Reporting Station
Clear Clear  
Wind Chill: 29°   Ceiling: Unl
Heat Index: 29°   Visibility: 6mi
Dew Point: 11°   Wind: 9mph
Humidity: 33%   Direction: 190°S
Pressure: 29.97"   Gusts: NA
Location:  31.92°S, 115.87°E
Report Text: YPPH 220430Z 19008KT CAVOK 29/11 Q1015
Loading
Personal Weather Stations






























Interactive Weather Map New forecast layout! Learn more

10-Day Weather Forecast

Advertisements
Track Severe Weather on mobile